KLMT/LMT METAR and TAF weather

Enter ICAO airport designator
Station Type Date Time Source
KLMT METAR 2021/05/11 16:53 UTC NOAA

KLMT 111653Z 10004KT 10SM CLR 15/M01 A3012 RMK AO2 SLP177 T01501006


Station Type Date Time Source
KLMT Decoded METAR 2021/05/11 16:53 UTC NOAA

KLAMATH FALLS INTERNATIONAL AIRPORT, OR, United States (KLMT) 42-09N 121-43W 1246M
May 11, 2021 - 12:53 PM EDT / 2021.05.11 1653 UTC
Wind: from the E (100 degrees) at 5 MPH (4 KT):0
Visibility: 10 mile(s):0
Sky conditions: clear
Temperature: 59.0 F (15.0 C)
Dew Point: 30.9 F (-0.6 C)
Relative Humidity: 34%
Pressure (altimeter): 30.12 in. Hg (1019 hPa)
ob: KLMT 111653Z 10004KT 10SM CLR 15/M01 A3012 RMK AO2 SLP177 T01501006
cycle: 17

Station Type Date Time Source
KLMT TAF 2021/05/11 12:36 UTC NOAA

TAF KLMT 111134Z 1112/1212 VRB03KT P6SM SKC
FM112000 32008KT P6SM SKC
FM120400 03003KT P6SM SKC

Example: see airport list